Indian Creek, Florida
Current Conditions -  °F | °C
As of 6:53 AM on Saturday 25 Oct 2014 (Local Time) from KOPF Reporting Station
Clear Clear  
Wind Chill: 69°   Ceiling: Unl
Heat Index: 69°   Visibility: 10mi
Dew Point: 62°   Wind: 9mph
Humidity: 78%   Direction: 340°NNW
Pressure: 29.88"   Gusts: NA
Location:  25.882°N, 80.1292°W
Report Text: KOPF 251053Z 34008KT 10SM CLR 21/17 A2988 RMK AO2 SLP119 T02060167 $
Loading
Personal Weather Stations






























Interactive Weather Map New forecast layout! Learn more

10-Day Weather Forecast

Advertisements
Track Severe Weather on mobile